sensor_id;sensor_type;location;lat;lon;timestamp;P1;durP1;ratioP1;P2;durP2;ratioP2
67528;SDS011;54366;51.980;5.856;2023-03-19T00:00:42;0.40;;;0.40;;
67528;SDS011;54366;51.980;5.856;2023-03-19T00:03:15;1.13;;;0.50;;
67528;SDS011;54366;51.980;5.856;2023-03-19T00:05:51;1.55;;;0.38;;
67528;SDS011;54366;51.980;5.856;2023-03-19T00:08:25;0.63;;;0.30;;
67528;SDS011;54366;51.980;5.856;2023-03-19T00:10:58;0.47;;;0.20;;
67528;SDS011;54366;51.980;5.856;2023-03-19T00:13:31;0.38;;;0.25;;
67528;SDS011;54366;51.980;5.856;2023-03-19T00:16:04;0.30;;;0.30;;
67528;SDS011;54366;51.980;5.856;2023-03-19T00:18:38;0.68;;;0.40;;
67528;SDS011;54366;51.980;5.856;2023-03-19T00:21:11;1.00;;;0.35;;
67528;SDS011;54366;51.980;5.856;2023-03-19T00:23:50;0.57;;;0.20;;
67528;SDS011;54366;51.980;5.856;2023-03-19T00:26:24;0.63;;;0.38;;
67528;SDS011;54366;51.980;5.856;2023-03-19T00:28:57;0.40;;;0.30;;
67528;SDS011;54366;51.980;5.856;2023-03-19T00:31:31;0.52;;;0.30;;
67528;SDS011;54366;51.980;5.856;2023-03-19T00:34:04;0.65;;;0.38;;
67528;SDS011;54366;51.980;5.856;2023-03-19T00:36:37;0.80;;;0.40;;
67528;SDS011;54366;51.980;5.856;2023-03-19T00:39:10;1.00;;;0.38;;
67528;SDS011;54366;51.980;5.856;2023-03-19T00:41:43;0.50;;;0.30;;
67528;SDS011;54366;51.980;5.856;2023-03-19T00:44:21;0.95;;;0.40;;
67528;SDS011;54366;51.980;5.856;2023-03-19T00:46:54;1.20;;;0.50;;
67528;SDS011;54366;51.980;5.856;2023-03-19T00:49:27;0.60;;;0.40;;
67528;SDS011;54366;51.980;5.856;2023-03-19T00:51:53;0.88;;;0.43;;
67528;SDS011;54366;51.980;5.856;2023-03-19T00:54:26;0.98;;;0.43;;
67528;SDS011;54366;51.980;5.856;2023-03-19T00:56:52;1.30;;;0.57;;
67528;SDS011;54366;51.980;5.856;2023-03-19T00:59:25;0.50;;;0.40;;
67528;SDS011;54366;51.980;5.856;2023-03-19T01:01:51;0.50;;;0.30;;
67528;SDS011;54366;51.980;5.856;2023-03-19T01:04:24;0.60;;;0.40;;
67528;SDS011;54366;51.980;5.856;2023-03-19T01:06:58;0.75;;;0.40;;
67528;SDS011;54366;51.980;5.856;2023-03-19T01:09:31;0.57;;;0.43;;
67528;SDS011;54366;51.980;5.856;2023-03-19T01:11:58;0.75;;;0.50;;
67528;SDS011;54366;51.980;5.856;2023-03-19T01:14:35;0.82;;;0.50;;
67528;SDS011;54366;51.980;5.856;2023-03-19T01:17:08;1.40;;;0.60;;
67528;SDS011;54366;51.980;5.856;2023-03-19T01:19:41;1.08;;;0.50;;
67528;SDS011;54366;51.980;5.856;2023-03-19T01:22:14;0.60;;;0.47;;
67528;SDS011;54366;51.980;5.856;2023-03-19T01:24:57;1.75;;;0.60;;
67528;SDS011;54366;51.980;5.856;2023-03-19T01:27:30;0.95;;;0.60;;
67528;SDS011;54366;51.980;5.856;2023-03-19T01:32:58;1.38;;;0.63;;
67528;SDS011;54366;51.980;5.856;2023-03-19T01:35:39;0.70;;;0.55;;
67528;SDS011;54366;51.980;5.856;2023-03-19T01:38:16;1.10;;;0.60;;
67528;SDS011;54366;51.980;5.856;2023-03-19T01:40:50;1.48;;;0.65;;
67528;SDS011;54366;51.980;5.856;2023-03-19T01:43:24;1.08;;;0.60;;
67528;SDS011;54366;51.980;5.856;2023-03-19T01:46:13;1.20;;;0.73;;
67528;SDS011;54366;51.980;5.856;2023-03-19T01:49:31;2.20;;;0.90;;
67528;SDS011;54366;51.980;5.856;2023-03-19T01:52:16;1.33;;;0.77;;
67528;SDS011;54366;51.980;5.856;2023-03-19T01:55:13;1.27;;;0.70;;
67528;SDS011;54366;51.980;5.856;2023-03-19T01:58:18;2.15;;;0.73;;
67528;SDS011;54366;51.980;5.856;2023-03-19T02:01:15;0.85;;;0.52;;
67528;SDS011;54366;51.980;5.856;2023-03-19T02:03:53;0.60;;;0.43;;
67528;SDS011;54366;51.980;5.856;2023-03-19T02:06:30;0.95;;;0.70;;
67528;SDS011;54366;51.980;5.856;2023-03-19T02:08:58;1.10;;;0.80;;
67528;SDS011;54366;51.980;5.856;2023-03-19T02:11:31;0.90;;;0.60;;
67528;SDS011;54366;51.980;5.856;2023-03-19T02:14:04;1.48;;;0.45;;
67528;SDS011;54366;51.980;5.856;2023-03-19T02:16:37;1.23;;;0.70;;
67528;SDS011;54366;51.980;5.856;2023-03-19T02:19:12;1.20;;;0.88;;
67528;SDS011;54366;51.980;5.856;2023-03-19T02:22:04;1.77;;;1.23;;
67528;SDS011;54366;51.980;5.856;2023-03-19T02:24:44;1.73;;;1.23;;
67528;SDS011;54366;51.980;5.856;2023-03-19T02:27:42;1.70;;;1.40;;
67528;SDS011;54366;51.980;5.856;2023-03-19T02:33:12;1.52;;;1.30;;
67528;SDS011;54366;51.980;5.856;2023-03-19T02:35:47;1.27;;;1.10;;
67528;SDS011;54366;51.980;5.856;2023-03-19T02:38:18;1.30;;;1.00;;
67528;SDS011;54366;51.980;5.856;2023-03-19T02:40:57;1.13;;;1.00;;
67528;SDS011;54366;51.980;5.856;2023-03-19T02:43:39;1.02;;;1.02;;
67528;SDS011;54366;51.980;5.856;2023-03-19T02:46:14;0.95;;;0.80;;
67528;SDS011;54366;51.980;5.856;2023-03-19T02:48:47;1.52;;;1.10;;
67528;SDS011;54366;51.980;5.856;2023-03-19T02:51:20;1.33;;;0.95;;
67528;SDS011;54366;51.980;5.856;2023-03-19T02:53:46;0.93;;;0.80;;
67528;SDS011;54366;51.980;5.856;2023-03-19T02:56:19;1.27;;;1.02;;
67528;SDS011;54366;51.980;5.856;2023-03-19T02:58:52;1.20;;;0.70;;
67528;SDS011;54366;51.980;5.856;2023-03-19T03:01:25;1.00;;;0.85;;
67528;SDS011;54366;51.980;5.856;2023-03-19T03:03:58;1.10;;;1.00;;
67528;SDS011;54366;51.980;5.856;2023-03-19T03:06:31;1.17;;;1.02;;
67528;SDS011;54366;51.980;5.856;2023-03-19T03:09:04;1.20;;;1.08;;
67528;SDS011;54366;51.980;5.856;2023-03-19T03:11:31;1.13;;;1.02;;
67528;SDS011;54366;51.980;5.856;2023-03-19T03:14:04;1.13;;;1.00;;
67528;SDS011;54366;51.980;5.856;2023-03-19T03:16:37;1.85;;;1.10;;
67528;SDS011;54366;51.980;5.856;2023-03-19T03:19:10;1.35;;;1.20;;
67528;SDS011;54366;51.980;5.856;2023-03-19T03:21:49;1.60;;;0.90;;
67528;SDS011;54366;51.980;5.856;2023-03-19T03:24:29;1.05;;;0.95;;
67528;SDS011;54366;51.980;5.856;2023-03-19T03:26:55;1.90;;;1.30;;
67528;SDS011;54366;51.980;5.856;2023-03-19T03:29:28;1.00;;;0.90;;
67528;SDS011;54366;51.980;5.856;2023-03-19T03:31:54;1.38;;;1.10;;
67528;SDS011;54366;51.980;5.856;2023-03-19T03:34:28;1.30;;;1.20;;
67528;SDS011;54366;51.980;5.856;2023-03-19T03:37:01;1.30;;;1.20;;
67528;SDS011;54366;51.980;5.856;2023-03-19T03:39:35;1.17;;;1.05;;
67528;SDS011;54366;51.980;5.856;2023-03-19T03:42:02;1.45;;;1.02;;
67528;SDS011;54366;51.980;5.856;2023-03-19T03:47:09;1.55;;;1.40;;
67528;SDS011;54366;51.980;5.856;2023-03-19T03:49:42;1.83;;;1.33;;
67528;SDS011;54366;51.980;5.856;2023-03-19T03:52:09;2.20;;;1.50;;
67528;SDS011;54366;51.980;5.856;2023-03-19T03:54:42;1.60;;;1.50;;
67528;SDS011;54366;51.980;5.856;2023-03-19T03:57:15;2.17;;;1.75;;
67528;SDS011;54366;51.980;5.856;2023-03-19T03:59:48;1.40;;;1.30;;
67528;SDS011;54366;51.980;5.856;2023-03-19T04:02:21;1.53;;;1.17;;
67528;SDS011;54366;51.980;5.856;2023-03-19T04:04:54;1.40;;;1.30;;
67528;SDS011;54366;51.980;5.856;2023-03-19T04:07:27;1.80;;;1.60;;
67528;SDS011;54366;51.980;5.856;2023-03-19T04:10:01;2.15;;;1.80;;
67528;SDS011;54366;51.980;5.856;2023-03-19T04:12:34;1.95;;;1.83;;
67528;SDS011;54366;51.980;5.856;2023-03-19T04:15:09;1.92;;;1.63;;
67528;SDS011;54366;51.980;5.856;2023-03-19T04:17:38;1.85;;;1.75;;
67528;SDS011;54366;51.980;5.856;2023-03-19T04:20:11;2.17;;;2.08;;
67528;SDS011;54366;51.980;5.856;2023-03-19T04:22:50;1.70;;;1.60;;
67528;SDS011;54366;51.980;5.856;2023-03-19T04:25:23;2.22;;;2.03;;
67528;SDS011;54366;51.980;5.856;2023-03-19T04:27:56;2.60;;;2.17;;
67528;SDS011;54366;51.980;5.856;2023-03-19T04:30:30;3.67;;;2.22;;
67528;SDS011;54366;51.980;5.856;2023-03-19T04:33:03;2.17;;;2.03;;
67528;SDS011;54366;51.980;5.856;2023-03-19T04:35:36;2.30;;;2.08;;
67528;SDS011;54366;51.980;5.856;2023-03-19T04:38:03;2.35;;;2.15;;
67528;SDS011;54366;51.980;5.856;2023-03-19T04:40:36;2.30;;;2.10;;
67528;SDS011;54366;51.980;5.856;2023-03-19T04:43:03;2.58;;;2.38;;
67528;SDS011;54366;51.980;5.856;2023-03-19T04:45:37;3.13;;;2.45;;
67528;SDS011;54366;51.980;5.856;2023-03-19T04:48:04;2.35;;;2.10;;
67528;SDS011;54366;51.980;5.856;2023-03-19T04:50:39;2.60;;;2.40;;
67528;SDS011;54366;51.980;5.856;2023-03-19T04:53:12;2.53;;;2.08;;
67528;SDS011;54366;51.980;5.856;2023-03-19T04:55:46;2.80;;;2.60;;
67528;SDS011;54366;51.980;5.856;2023-03-19T04:58:19;3.13;;;2.80;;
67528;SDS011;54366;51.980;5.856;2023-03-19T05:00:58;3.38;;;2.95;;
67528;SDS011;54366;51.980;5.856;2023-03-19T05:03:49;3.13;;;2.70;;
67528;SDS011;54366;51.980;5.856;2023-03-19T05:06:22;4.22;;;3.08;;
67528;SDS011;54366;51.980;5.856;2023-03-19T05:08:55;4.30;;;3.30;;
67528;SDS011;54366;51.980;5.856;2023-03-19T05:11:28;3.88;;;3.58;;
67528;SDS011;54366;51.980;5.856;2023-03-19T05:14:21;3.95;;;3.55;;
67528;SDS011;54366;51.980;5.856;2023-03-19T05:17:00;5.15;;;4.28;;
67528;SDS011;54366;51.980;5.856;2023-03-19T05:19:45;4.90;;;4.40;;
67528;SDS011;54366;51.980;5.856;2023-03-19T05:22:18;5.00;;;4.60;;
67528;SDS011;54366;51.980;5.856;2023-03-19T05:25:05;5.68;;;5.18;;
67528;SDS011;54366;51.980;5.856;2023-03-19T05:27:40;5.90;;;5.40;;
67528;SDS011;54366;51.980;5.856;2023-03-19T05:30:09;5.82;;;5.25;;
67528;SDS011;54366;51.980;5.856;2023-03-19T05:33:03;6.28;;;5.68;;
67528;SDS011;54366;51.980;5.856;2023-03-19T05:35:40;5.65;;;4.22;;
67528;SDS011;54366;51.980;5.856;2023-03-19T05:38:37;6.53;;;5.43;;
67528;SDS011;54366;51.980;5.856;2023-03-19T05:41:16;5.40;;;4.90;;
67528;SDS011;54366;51.980;5.856;2023-03-19T05:43:57;6.53;;;5.78;;
67528;SDS011;54366;51.980;5.856;2023-03-19T05:46:50;7.93;;;6.93;;
67528;SDS011;54366;51.980;5.856;2023-03-19T05:49:26;7.38;;;6.68;;
67528;SDS011;54366;51.980;5.856;2023-03-19T05:51:59;8.02;;;7.15;;
67528;SDS011;54366;51.980;5.856;2023-03-19T05:54:33;6.97;;;6.37;;
67528;SDS011;54366;51.980;5.856;2023-03-19T05:57:12;8.30;;;7.40;;
67528;SDS011;54366;51.980;5.856;2023-03-19T06:00:08;10.18;;;9.27;;
67528;SDS011;54366;51.980;5.856;2023-03-19T06:02:42;9.95;;;8.90;;
67528;SDS011;54366;51.980;5.856;2023-03-19T06:05:23;10.63;;;9.63;;
67528;SDS011;54366;51.980;5.856;2023-03-19T06:08:06;10.75;;;9.75;;
67528;SDS011;54366;51.980;5.856;2023-03-19T06:10:59;11.73;;;10.52;;
67528;SDS011;54366;51.980;5.856;2023-03-19T06:13:33;9.95;;;9.02;;
67528;SDS011;54366;51.980;5.856;2023-03-19T06:16:05;13.15;;;11.75;;
67528;SDS011;54366;51.980;5.856;2023-03-19T06:18:45;11.20;;;10.00;;
67528;SDS011;54366;51.980;5.856;2023-03-19T06:21:18;12.82;;;11.52;;
67528;SDS011;54366;51.980;5.856;2023-03-19T06:24:08;12.32;;;11.02;;
67528;SDS011;54366;51.980;5.856;2023-03-19T06:26:41;11.05;;;9.95;;
67528;SDS011;54366;51.980;5.856;2023-03-19T06:29:14;11.10;;;9.90;;
67528;SDS011;54366;51.980;5.856;2023-03-19T06:31:44;11.50;;;10.23;;
67528;SDS011;54366;51.980;5.856;2023-03-19T06:34:27;14.23;;;12.68;;
67528;SDS011;54366;51.980;5.856;2023-03-19T06:37:00;12.75;;;11.45;;
67528;SDS011;54366;51.980;5.856;2023-03-19T06:39:33;12.52;;;11.23;;
67528;SDS011;54366;51.980;5.856;2023-03-19T06:42:06;13.10;;;11.80;;
67528;SDS011;54366;51.980;5.856;2023-03-19T06:44:39;12.50;;;11.20;;
67528;SDS011;54366;51.980;5.856;2023-03-19T06:47:05;13.57;;;12.15;;
67528;SDS011;54366;51.980;5.856;2023-03-19T06:49:40;12.40;;;11.10;;
67528;SDS011;54366;51.980;5.856;2023-03-19T06:52:13;12.10;;;10.85;;
67528;SDS011;54366;51.980;5.856;2023-03-19T06:54:46;12.05;;;10.80;;
67528;SDS011;54366;51.980;5.856;2023-03-19T06:57:19;12.52;;;11.23;;
67528;SDS011;54366;51.980;5.856;2023-03-19T06:59:45;11.10;;;9.82;;
67528;SDS011;54366;51.980;5.856;2023-03-19T07:02:18;11.82;;;10.60;;
67528;SDS011;54366;51.980;5.856;2023-03-19T07:04:51;13.40;;;12.10;;
67528;SDS011;54366;51.980;5.856;2023-03-19T07:07:24;12.77;;;11.48;;
67528;SDS011;54366;51.980;5.856;2023-03-19T07:09:50;11.57;;;10.38;;
67528;SDS011;54366;51.980;5.856;2023-03-19T07:12:23;10.10;;;9.15;;
67528;SDS011;54366;51.980;5.856;2023-03-19T07:14:53;10.20;;;9.13;;
67528;SDS011;54366;51.980;5.856;2023-03-19T07:17:29;10.55;;;9.52;;
67528;SDS011;54366;51.980;5.856;2023-03-19T07:20:02;9.88;;;8.88;;
67528;SDS011;54366;51.980;5.856;2023-03-19T07:22:35;12.98;;;11.35;;
67528;SDS011;54366;51.980;5.856;2023-03-19T07:25:21;11.85;;;10.70;;
67528;SDS011;54366;51.980;5.856;2023-03-19T07:27:54;10.52;;;9.48;;
67528;SDS011;54366;51.980;5.856;2023-03-19T07:30:27;11.77;;;9.95;;
67528;SDS011;54366;51.980;5.856;2023-03-19T07:33:00;9.95;;;8.02;;
67528;SDS011;54366;51.980;5.856;2023-03-19T07:35:33;8.52;;;6.70;;
67528;SDS011;54366;51.980;5.856;2023-03-19T07:38:06;7.22;;;6.53;;
67528;SDS011;54366;51.980;5.856;2023-03-19T07:40:39;5.55;;;4.95;;
67528;SDS011;54366;51.980;5.856;2023-03-19T07:43:06;7.57;;;6.65;;
67528;SDS011;54366;51.980;5.856;2023-03-19T07:45:39;7.97;;;7.18;;
67528;SDS011;54366;51.980;5.856;2023-03-19T07:48:12;8.30;;;7.07;;
67528;SDS011;54366;51.980;5.856;2023-03-19T07:50:45;9.10;;;8.02;;
67528;SDS011;54366;51.980;5.856;2023-03-19T07:53:18;10.07;;;9.05;;
67528;SDS011;54366;51.980;5.856;2023-03-19T07:55:51;13.27;;;11.43;;
67528;SDS011;54366;51.980;5.856;2023-03-19T07:58:17;11.48;;;9.98;;
67528;SDS011;54366;51.980;5.856;2023-03-19T08:00:50;11.23;;;10.02;;
67528;SDS011;54366;51.980;5.856;2023-03-19T08:03:24;11.30;;;9.30;;
67528;SDS011;54366;51.980;5.856;2023-03-19T08:05:57;9.65;;;8.65;;
67528;SDS011;54366;51.980;5.856;2023-03-19T08:08:30;10.82;;;9.73;;
67528;SDS011;54366;51.980;5.856;2023-03-19T08:11:06;9.95;;;8.95;;
67528;SDS011;54366;51.980;5.856;2023-03-19T08:13:39;7.95;;;7.20;;
67528;SDS011;54366;51.980;5.856;2023-03-19T08:16:12;11.88;;;9.98;;
67528;SDS011;54366;51.980;5.856;2023-03-19T08:18:45;13.32;;;10.50;;
67528;SDS011;54366;51.980;5.856;2023-03-19T08:21:18;11.40;;;10.20;;
67528;SDS011;54366;51.980;5.856;2023-03-19T08:23:57;11.13;;;9.80;;
67528;SDS011;54366;51.980;5.856;2023-03-19T08:26:37;10.98;;;9.25;;
67528;SDS011;54366;51.980;5.856;2023-03-19T08:29:24;14.68;;;12.32;;
67528;SDS011;54366;51.980;5.856;2023-03-19T08:32:03;12.20;;;10.95;;
67528;SDS011;54366;51.980;5.856;2023-03-19T08:34:37;13.52;;;11.60;;
67528;SDS011;54366;51.980;5.856;2023-03-19T08:37:04;11.40;;;10.02;;
67528;SDS011;54366;51.980;5.856;2023-03-19T08:39:36;13.23;;;10.57;;
67528;SDS011;54366;51.980;5.856;2023-03-19T08:42:09;12.00;;;10.10;;
67528;SDS011;54366;51.980;5.856;2023-03-19T08:44:42;12.90;;;11.00;;
67528;SDS011;54366;51.980;5.856;2023-03-19T08:47:15;9.75;;;8.75;;
67528;SDS011;54366;51.980;5.856;2023-03-19T08:49:49;11.95;;;10.68;;
67528;SDS011;54366;51.980;5.856;2023-03-19T08:52:22;12.77;;;10.73;;
67528;SDS011;54366;51.980;5.856;2023-03-19T08:54:55;12.98;;;11.75;;
67528;SDS011;54366;51.980;5.856;2023-03-19T08:57:29;15.63;;;14.02;;
67528;SDS011;54366;51.980;5.856;2023-03-19T09:00:03;14.75;;;13.35;;
67528;SDS011;54366;51.980;5.856;2023-03-19T09:02:37;15.95;;;14.35;;
67528;SDS011;54366;51.980;5.856;2023-03-19T09:05:11;16.60;;;14.95;;
67528;SDS011;54366;51.980;5.856;2023-03-19T09:07:44;16.58;;;14.88;;
67528;SDS011;54366;51.980;5.856;2023-03-19T09:10:17;20.67;;;18.48;;
67528;SDS011;54366;51.980;5.856;2023-03-19T09:12:50;16.65;;;14.95;;
67528;SDS011;54366;51.980;5.856;2023-03-19T09:15:23;15.00;;;13.52;;
67528;SDS011;54366;51.980;5.856;2023-03-19T09:17:56;13.95;;;12.55;;
67528;SDS011;54366;51.980;5.856;2023-03-19T09:20:29;14.10;;;12.70;;
67528;SDS011;54366;51.980;5.856;2023-03-19T09:23:02;14.77;;;13.27;;
67528;SDS011;54366;51.980;5.856;2023-03-19T09:25:29;16.23;;;14.63;;
67528;SDS011;54366;51.980;5.856;2023-03-19T09:28:08;18.85;;;16.83;;
67528;SDS011;54366;51.980;5.856;2023-03-19T09:30:41;16.67;;;15.10;;
67528;SDS011;54366;51.980;5.856;2023-03-19T09:33:10;15.73;;;14.23;;
67528;SDS011;54366;51.980;5.856;2023-03-19T09:35:47;15.48;;;13.98;;
67528;SDS011;54366;51.980;5.856;2023-03-19T09:38:21;14.13;;;12.73;;
67528;SDS011;54366;51.980;5.856;2023-03-19T09:43:56;15.73;;;14.23;;
67528;SDS011;54366;51.980;5.856;2023-03-19T09:46:39;17.38;;;15.68;;
67528;SDS011;54366;51.980;5.856;2023-03-19T09:52:34;16.38;;;14.77;;
67528;SDS011;54366;51.980;5.856;2023-03-19T09:58:32;17.67;;;15.88;;
67528;SDS011;54366;51.980;5.856;2023-03-19T10:01:10;17.65;;;15.88;;
67528;SDS011;54366;51.980;5.856;2023-03-19T10:04:08;16.63;;;15.05;;
67528;SDS011;54366;51.980;5.856;2023-03-19T10:10:26;15.90;;;14.40;;
67528;SDS011;54366;51.980;5.856;2023-03-19T10:13:22;14.88;;;13.38;;
67528;SDS011;54366;51.980;5.856;2023-03-19T10:16:15;16.00;;;14.50;;
67528;SDS011;54366;51.980;5.856;2023-03-19T10:18:53;14.88;;;13.52;;
67528;SDS011;54366;51.980;5.856;2023-03-19T10:21:40;16.48;;;14.98;;
67528;SDS011;54366;51.980;5.856;2023-03-19T10:24:27;14.88;;;13.52;;
67528;SDS011;54366;51.980;5.856;2023-03-19T10:27:08;17.55;;;15.95;;
67528;SDS011;54366;51.980;5.856;2023-03-19T10:30:00;16.42;;;14.90;;
67528;SDS011;54366;51.980;5.856;2023-03-19T10:32:52;15.88;;;14.48;;
67528;SDS011;54366;51.980;5.856;2023-03-19T10:35:42;18.33;;;16.55;;
67528;SDS011;54366;51.980;5.856;2023-03-19T10:38:20;18.40;;;16.80;;
67528;SDS011;54366;51.980;5.856;2023-03-19T10:44:02;18.83;;;17.08;;
67528;SDS011;54366;51.980;5.856;2023-03-19T10:46:38;18.00;;;16.40;;
67528;SDS011;54366;51.980;5.856;2023-03-19T10:49:12;19.10;;;17.30;;
67528;SDS011;54366;51.980;5.856;2023-03-19T10:51:46;21.58;;;19.02;;
67528;SDS011;54366;51.980;5.856;2023-03-19T10:54:21;22.95;;;20.50;;
67528;SDS011;54366;51.980;5.856;2023-03-19T10:56:59;22.85;;;20.60;;
67528;SDS011;54366;51.980;5.856;2023-03-19T10:59:35;20.63;;;18.70;;
67528;SDS011;54366;51.980;5.856;2023-03-19T11:02:16;20.15;;;18.25;;
67528;SDS011;54366;51.980;5.856;2023-03-19T11:08:16;20.75;;;18.65;;
67528;SDS011;54366;51.980;5.856;2023-03-19T11:10:52;21.02;;;18.92;;
67528;SDS011;54366;51.980;5.856;2023-03-19T11:13:23;22.45;;;20.23;;
67528;SDS011;54366;51.980;5.856;2023-03-19T11:15:58;21.73;;;19.73;;
67528;SDS011;54366;51.980;5.856;2023-03-19T11:18:29;19.17;;;17.38;;
67528;SDS011;54366;51.980;5.856;2023-03-19T11:21:20;19.80;;;17.90;;
67528;SDS011;54366;51.980;5.856;2023-03-19T11:24:02;21.35;;;19.17;;
67528;SDS011;54366;51.980;5.856;2023-03-19T11:26:29;18.55;;;16.75;;
67528;SDS011;54366;51.980;5.856;2023-03-19T11:29:03;18.45;;;16.65;;
67528;SDS011;54366;51.980;5.856;2023-03-19T11:31:45;19.27;;;17.45;;
67528;SDS011;54366;51.980;5.856;2023-03-19T11:34:50;19.88;;;17.35;;
67528;SDS011;54366;51.980;5.856;2023-03-19T11:40:46;16.33;;;14.68;;
67528;SDS011;54366;51.980;5.856;2023-03-19T11:46:28;19.50;;;17.23;;
67528;SDS011;54366;51.980;5.856;2023-03-19T11:49:10;22.85;;;20.33;;
67528;SDS011;54366;51.980;5.856;2023-03-19T11:52:40;21.48;;;19.17;;
67528;SDS011;54366;51.980;5.856;2023-03-19T11:55:16;17.48;;;15.32;;
67528;SDS011;54366;51.980;5.856;2023-03-19T12:01:18;20.33;;;15.88;;
67528;SDS011;54366;51.980;5.856;2023-03-19T12:04:17;20.77;;;16.33;;
67528;SDS011;54366;51.980;5.856;2023-03-19T12:13:44;21.55;;;15.52;;
67528;SDS011;54366;51.980;5.856;2023-03-19T12:16:58;18.83;;;14.98;;
67528;SDS011;54366;51.980;5.856;2023-03-19T12:26:34;16.92;;;13.93;;
67528;SDS011;54366;51.980;5.856;2023-03-19T12:29:47;20.10;;;15.48;;
67528;SDS011;54366;51.980;5.856;2023-03-19T12:35:54;18.13;;;13.88;;
67528;SDS011;54366;51.980;5.856;2023-03-19T12:38:32;16.52;;;14.07;;
67528;SDS011;54366;51.980;5.856;2023-03-19T12:41:21;19.00;;;14.43;;
67528;SDS011;54366;51.980;5.856;2023-03-19T12:44:08;18.10;;;14.45;;
67528;SDS011;54366;51.980;5.856;2023-03-19T12:46:47;19.35;;;13.57;;
67528;SDS011;54366;51.980;5.856;2023-03-19T12:49:35;15.88;;;12.50;;
67528;SDS011;54366;51.980;5.856;2023-03-19T12:52:16;15.98;;;12.40;;
67528;SDS011;54366;51.980;5.856;2023-03-19T12:55:40;14.90;;;11.07;;
67528;SDS011;54366;51.980;5.856;2023-03-19T13:01:40;15.50;;;11.27;;
67528;SDS011;54366;51.980;5.856;2023-03-19T13:04:22;13.35;;;10.02;;
67528;SDS011;54366;51.980;5.856;2023-03-19T13:10:26;13.85;;;9.75;;
67528;SDS011;54366;51.980;5.856;2023-03-19T13:16:11;13.38;;;10.52;;
67528;SDS011;54366;51.980;5.856;2023-03-19T13:19:24;14.23;;;10.32;;
67528;SDS011;54366;51.980;5.856;2023-03-19T13:22:05;12.77;;;10.23;;
67528;SDS011;54366;51.980;5.856;2023-03-19T13:24:43;9.68;;;8.35;;
67528;SDS011;54366;51.980;5.856;2023-03-19T13:27:25;16.52;;;12.20;;
67528;SDS011;54366;51.980;5.856;2023-03-19T13:30:15;13.75;;;10.82;;
67528;SDS011;54366;51.980;5.856;2023-03-19T13:33:04;14.35;;;10.27;;
67528;SDS011;54366;51.980;5.856;2023-03-19T13:35:49;10.68;;;8.68;;
67528;SDS011;54366;51.980;5.856;2023-03-19T13:38:26;11.60;;;8.38;;
67528;SDS011;54366;51.980;5.856;2023-03-19T13:41:23;11.65;;;9.30;;
67528;SDS011;54366;51.980;5.856;2023-03-19T13:44:28;12.80;;;9.55;;
67528;SDS011;54366;51.980;5.856;2023-03-19T13:47:55;11.13;;;8.75;;
67528;SDS011;54366;51.980;5.856;2023-03-19T13:53:17;9.25;;;8.25;;
67528;SDS011;54366;51.980;5.856;2023-03-19T13:56:11;12.27;;;8.30;;
67528;SDS011;54366;51.980;5.856;2023-03-19T13:58:50;10.50;;;8.85;;
67528;SDS011;54366;51.980;5.856;2023-03-19T14:01:34;10.40;;;8.50;;
67528;SDS011;54366;51.980;5.856;2023-03-19T14:04:18;10.38;;;8.45;;
67528;SDS011;54366;51.980;5.856;2023-03-19T14:07:15;8.40;;;7.55;;
67528;SDS011;54366;51.980;5.856;2023-03-19T14:13:01;10.23;;;7.10;;
67528;SDS011;54366;51.980;5.856;2023-03-19T14:15:40;9.43;;;6.65;;
67528;SDS011;54366;51.980;5.856;2023-03-19T14:18:20;9.25;;;7.10;;
67528;SDS011;54366;51.980;5.856;2023-03-19T14:21:03;8.30;;;6.05;;
67528;SDS011;54366;51.980;5.856;2023-03-19T14:23:38;8.27;;;6.32;;
67528;SDS011;54366;51.980;5.856;2023-03-19T14:26:16;9.15;;;7.80;;
67528;SDS011;54366;51.980;5.856;2023-03-19T14:29:00;9.77;;;6.68;;
67528;SDS011;54366;51.980;5.856;2023-03-19T14:31:52;7.93;;;6.38;;
67528;SDS011;54366;51.980;5.856;2023-03-19T14:34:31;9.77;;;7.05;;
67528;SDS011;54366;51.980;5.856;2023-03-19T14:37:24;9.13;;;6.63;;
67528;SDS011;54366;51.980;5.856;2023-03-19T14:40:11;11.68;;;8.77;;
67528;SDS011;54366;51.980;5.856;2023-03-19T14:47:02;11.60;;;8.95;;
67528;SDS011;54366;51.980;5.856;2023-03-19T14:49:48;10.90;;;8.43;;
67528;SDS011;54366;51.980;5.856;2023-03-19T14:52:31;12.85;;;9.63;;
67528;SDS011;54366;51.980;5.856;2023-03-19T14:55:09;15.30;;;11.73;;
67528;SDS011;54366;51.980;5.856;2023-03-19T14:57:46;13.45;;;10.45;;
67528;SDS011;54366;51.980;5.856;2023-03-19T15:00:20;12.13;;;9.25;;
67528;SDS011;54366;51.980;5.856;2023-03-19T15:02:53;13.73;;;10.45;;
67528;SDS011;54366;51.980;5.856;2023-03-19T15:08:08;14.35;;;11.07;;
67528;SDS011;54366;51.980;5.856;2023-03-19T15:17:23;10.77;;;8.77;;
67528;SDS011;54366;51.980;5.856;2023-03-19T15:19:59;13.73;;;9.13;;
67528;SDS011;54366;51.980;5.856;2023-03-19T15:22:33;13.15;;;9.75;;
67528;SDS011;54366;51.980;5.856;2023-03-19T15:25:09;10.35;;;9.05;;
67528;SDS011;54366;51.980;5.856;2023-03-19T15:27:46;13.77;;;10.63;;
67528;SDS011;54366;51.980;5.856;2023-03-19T15:30:38;14.50;;;10.52;;
67528;SDS011;54366;51.980;5.856;2023-03-19T15:33:21;14.43;;;10.95;;
67528;SDS011;54366;51.980;5.856;2023-03-19T15:36:04;13.23;;;11.20;;
67528;SDS011;54366;51.980;5.856;2023-03-19T15:39:04;13.38;;;10.77;;
67528;SDS011;54366;51.980;5.856;2023-03-19T15:41:43;15.10;;;10.82;;
67528;SDS011;54366;51.980;5.856;2023-03-19T15:44:26;14.00;;;11.18;;
67528;SDS011;54366;51.980;5.856;2023-03-19T15:47:05;12.93;;;10.50;;
67528;SDS011;54366;51.980;5.856;2023-03-19T15:49:44;15.63;;;12.07;;
67528;SDS011;54366;51.980;5.856;2023-03-19T15:52:21;12.73;;;10.68;;
67528;SDS011;54366;51.980;5.856;2023-03-19T15:54:58;12.40;;;10.63;;
67528;SDS011;54366;51.980;5.856;2023-03-19T15:57:26;12.75;;;9.77;;
67528;SDS011;54366;51.980;5.856;2023-03-19T15:59:59;10.52;;;9.20;;
67528;SDS011;54366;51.980;5.856;2023-03-19T16:02:38;11.68;;;9.52;;
67528;SDS011;54366;51.980;5.856;2023-03-19T16:05:23;10.40;;;9.10;;
67528;SDS011;54366;51.980;5.856;2023-03-19T16:08:01;10.55;;;9.10;;
67528;SDS011;54366;51.980;5.856;2023-03-19T16:10:40;10.70;;;9.27;;
67528;SDS011;54366;51.980;5.856;2023-03-19T16:16:21;9.80;;;7.90;;
67528;SDS011;54366;51.980;5.856;2023-03-19T16:18:56;13.00;;;9.63;;
67528;SDS011;54366;51.980;5.856;2023-03-19T16:21:34;12.15;;;9.35;;
67528;SDS011;54366;51.980;5.856;2023-03-19T16:24:31;9.88;;;8.10;;
67528;SDS011;54366;51.980;5.856;2023-03-19T16:27:10;8.20;;;7.32;;
67528;SDS011;54366;51.980;5.856;2023-03-19T16:29:55;10.88;;;8.68;;
67528;SDS011;54366;51.980;5.856;2023-03-19T16:32:36;9.50;;;8.52;;
67528;SDS011;54366;51.980;5.856;2023-03-19T16:35:04;8.02;;;7.22;;
67528;SDS011;54366;51.980;5.856;2023-03-19T16:37:45;11.65;;;8.20;;
67528;SDS011;54366;51.980;5.856;2023-03-19T16:40:42;9.10;;;8.18;;
67528;SDS011;54366;51.980;5.856;2023-03-19T16:43:21;6.87;;;6.27;;
67528;SDS011;54366;51.980;5.856;2023-03-19T16:46:04;9.35;;;7.57;;
67528;SDS011;54366;51.980;5.856;2023-03-19T16:48:42;8.25;;;7.38;;
67528;SDS011;54366;51.980;5.856;2023-03-19T16:51:16;9.48;;;8.50;;
67528;SDS011;54366;51.980;5.856;2023-03-19T16:53:50;10.40;;;9.30;;
67528;SDS011;54366;51.980;5.856;2023-03-19T16:56:23;10.05;;;9.00;;
67528;SDS011;54366;51.980;5.856;2023-03-19T16:58:56;12.85;;;10.60;;
67528;SDS011;54366;51.980;5.856;2023-03-19T17:01:33;12.48;;;10.27;;
67528;SDS011;54366;51.980;5.856;2023-03-19T17:04:00;10.95;;;9.50;;
67528;SDS011;54366;51.980;5.856;2023-03-19T17:06:32;10.68;;;9.52;;